Time;durP1;ratioP1;P1;durP2;ratioP2;P2;SDS_P1;SDS_P2;PMS_P1;PMS_P2;Temp;Humidity;BMP_temperature;BMP_pressure;BME280_temperature;BME280_humidity;BME280_pressure;Samples;Min_cycle;Max_cycle;Signal;HPM_P1;HPM_P2
2021/03/09 00:04:48;;;;;;;43.45;28.60;;;;;;;4.06;100.00;101440.78;10161676;29;20051;-75
2021/03/09 00:09:49;;;;;;;44.72;28.23;;;;;;;4.12;100.00;101438.13;10160652;29;20056;-74
2021/03/09 00:14:50;;;;;;;44.00;28.42;;;;;;;4.09;100.00;101419.91;10175737;29;20044;-76
2021/03/09 00:20:06;;;;;;;46.25;28.77;;;;;;;4.12;100.00;101421.63;10175383;29;20060;-74
2021/03/09 00:25:08;;;;;;;42.60;28.35;;;;;;;4.12;100.00;101419.00;10175840;29;20055;-75
2021/03/09 00:30:10;;;;;;;44.67;27.55;;;;;;;4.07;100.00;101412.97;10181304;29;20378;-75
2021/03/09 00:35:12;;;;;;;49.13;31.08;;;;;;;3.98;100.00;101399.97;10141690;29;20374;-75
2021/03/09 00:40:13;;;;;;;48.00;31.48;;;;;;;3.94;100.00;101409.53;10143551;29;20044;-75
2021/03/09 00:45:14;;;;;;;50.05;32.47;;;;;;;3.92;100.00;101403.50;10143650;29;20048;-74
2021/03/09 00:50:27;;;;;;;52.03;33.50;;;;;;;4.02;100.00;101406.88;10144046;29;20356;-75
2021/03/09 00:55:29;;;;;;;48.17;30.33;;;;;;;4.11;100.00;101405.13;10142570;29;20045;-75
2021/03/09 01:00:31;;;;;;;49.22;32.10;;;;;;;4.12;100.00;101393.81;10144180;29;20048;-74
2021/03/09 01:05:32;;;;;;;50.75;33.92;;;;;;;4.05;100.00;101379.06;10170749;29;20450;-76
2021/03/09 01:10:34;;;;;;;50.83;32.00;;;;;;;4.19;100.00;101399.84;10181595;29;20518;-74
2021/03/09 01:15:35;;;;;;;50.40;31.92;;;;;;;4.16;100.00;101395.53;10181693;29;20063;-75
2021/03/09 01:20:50;;;;;;;49.95;32.65;;;;;;;4.23;100.00;101396.38;10182370;29;20056;-75
2021/03/09 01:25:52;;;;;;;49.03;32.60;;;;;;;4.14;100.00;101379.03;10180805;29;20040;-75
2021/03/09 01:30:54;;;;;;;51.60;32.92;;;;;;;4.23;100.00;101392.91;10182379;29;20044;-75
2021/03/09 01:35:55;;;;;;;51.35;34.97;;;;;;;4.12;100.00;101385.13;10148779;29;20053;-74
2021/03/09 01:40:57;;;;;;;64.40;44.38;;;;;;;4.05;100.00;101379.06;10141659;29;20419;-74
2021/03/09 01:45:59;;;;;;;85.80;59.22;;;;;;;4.01;100.00;101379.13;10140830;29;20049;-74
2021/03/09 01:51:16;;;;;;;73.75;50.95;;;;;;;3.84;100.00;101368.78;10141456;29;20129;-75
2021/03/09 01:56:17;;;;;;;57.22;42.00;;;;;;;3.88;100.00;101378.28;10140019;29;20074;-75
2021/03/09 02:01:19;;;;;;;72.78;47.42;;;;;;;3.87;100.00;101373.94;10140649;29;20059;-75
2021/03/09 02:06:20;;;;;;;58.20;40.33;;;;;;;3.75;100.00;101359.25;10124658;29;20410;-75
2021/03/09 02:11:27;;;;;;;57.10;38.03;;;;;;;3.89;100.00;101366.13;10140293;29;20396;-74
2021/03/09 02:16:34;;;;;;;55.03;36.92;;;;;;;3.89;100.00;101363.53;10139913;29;20055;-74
2021/03/09 02:21:58;;;;;;;54.08;36.85;;;;;;;4.00;100.00;101367.81;10139415;29;20378;-74
2021/03/09 02:27:24;;;;;;;51.20;35.60;;;;;;;3.88;100.00;101348.75;10140441;29;20044;-74
2021/03/09 02:32:27;;;;;;;;;;;;;;;3.94;100.00;101360.00;10139296;29;20052;-75
2021/03/09 02:37:35;;;;;;;55.00;37.78;;;;;;;3.85;100.00;101339.19;10139708;29;19979;-74
2021/03/09 02:42:45;;;;;;;55.97;37.60;;;;;;;3.87;100.00;101344.41;10123912;29;20383;-75
2021/03/09 02:47:48;;;;;;;56.65;37.60;;;;;;;3.90;100.00;101358.31;10139346;29;20447;-74
2021/03/09 02:52:56;;;;;;;52.30;34.73;;;;;;;3.80;100.00;101334.03;10139923;29;20104;-76
2021/03/09 02:57:59;;;;;;;51.75;32.75;;;;;;;3.81;100.00;101329.69;10123066;29;20052;-74
2021/03/09 03:03:02;;;;;;;47.90;31.08;;;;;;;3.78;100.00;101330.56;10138948;29;20044;-75
2021/03/09 03:08:07;;;;;;;50.88;32.35;;;;;;;3.87;100.00;101326.16;10138776;29;20111;-75
2021/03/09 03:13:10;;;;;;;44.90;30.90;;;;;;;3.96;100.00;101326.13;10123193;29;20111;-75
2021/03/09 03:18:15;;;;;;;45.88;32.13;;;;;;;3.95;100.00;101313.97;10122221;29;20052;-75
2021/03/09 03:23:18;;;;;;;49.67;33.92;;;;;;;3.84;100.00;101293.19;10138964;29;20049;-74
2021/03/09 03:28:20;;;;;;;51.38;33.70;;;;;;;3.75;100.00;101286.28;10138261;29;20100;-75
2021/03/09 03:33:21;;;;;;;52.75;36.50;;;;;;;3.83;100.00;101296.66;10134044;29;20052;-75
2021/03/09 03:38:23;;;;;;;54.10;35.30;;;;;;;3.78;100.00;101281.03;10176220;29;20075;-75
2021/03/09 03:43:24;;;;;;;58.45;37.97;;;;;;;3.76;100.00;101284.56;10176557;29;20056;-74
2021/03/09 03:48:26;;;;;;;55.40;37.20;;;;;;;3.80;100.00;101288.84;10160572;29;20484;-74
2021/03/09 03:54:05;;;;;;;55.65;33.90;;;;;;;3.70;100.00;101271.53;10177654;29;20052;-74
2021/03/09 03:59:21;;;;;;;54.80;33.90;;;;;;;3.71;100.00;101276.75;10175655;29;20052;-74
2021/03/09 04:04:25;;;;;;;54.78;35.28;;;;;;;3.64;100.00;101284.59;10165374;29;20043;-75
2021/03/09 04:09:26;;;;;;;55.75;35.05;;;;;;;3.59;100.00;101279.44;10184773;29;20044;-74
2021/03/09 04:14:32;;;;;;;52.08;34.92;;;;;;;3.51;100.00;101278.59;10168116;29;20446;-76
2021/03/09 04:19:36;;;;;;;54.08;34.47;;;;;;;3.52;100.00;101289.84;10167872;29;20104;-75
2021/03/09 04:24:39;;;;;;;57.27;37.63;;;;;;;3.43;100.00;101288.19;10167740;29;20080;-76
2021/03/09 04:29:40;;;;;;;56.00;37.25;;;;;;;3.30;100.00;101279.53;10167494;29;20056;-75
2021/03/09 04:34:42;;;;;;;56.97;38.10;;;;;;;3.35;100.00;101296.00;10183944;29;20386;-74
2021/03/09 04:39:43;;;;;;;54.22;36.03;;;;;;;3.34;100.00;101294.28;10168210;29;20108;-75
2021/03/09 04:44:46;;;;;;;57.95;37.33;;;;;;;3.29;100.00;101290.81;10183183;29;20070;-75
2021/03/09 04:49:47;;;;;;;49.40;34.80;;;;;;;3.32;100.00;101297.78;10182933;29;20044;-74
2021/03/09 04:54:48;;;;;;;54.58;34.50;;;;;;;3.23;100.00;101293.47;10183945;29;20048;-75
2021/03/09 04:59:49;;;;;;;51.03;33.35;;;;;;;3.19;100.00;101290.84;10181961;29;20592;-74
2021/03/09 05:04:51;;;;;;;56.40;36.60;;;;;;;3.17;100.00;101296.09;10143751;29;20432;-75
2021/03/09 05:09:52;;;;;;;58.45;36.97;;;;;;;3.26;100.00;101308.22;10142897;29;20068;-75
2021/03/09 05:14:54;;;;;;;59.35;38.47;;;;;;;3.18;100.00;101303.00;10142464;29;20037;-75
2021/03/09 05:19:55;;;;;;;56.92;35.58;;;;;;;3.22;100.00;101302.13;10141926;29;20064;-75
2021/03/09 05:24:56;;;;;;;58.63;38.17;;;;;;;3.14;100.00;101282.19;10142197;29;20372;-74
2021/03/09 05:29:57;;;;;;;57.65;38.22;;;;;;;3.16;100.00;101293.47;10141901;29;20089;-74
2021/03/09 05:34:59;;;;;;;51.72;33.95;;;;;;;3.09;100.00;101292.66;10126043;29;20055;-75
2021/03/09 05:40:00;;;;;;;52.72;34.03;;;;;;;3.06;100.00;101277.03;10141707;29;20048;-74
2021/03/09 05:45:06;;;;;;;50.00;34.28;;;;;;;2.98;100.00;101281.38;10142650;29;20136;-75
2021/03/09 05:50:08;;;;;;;50.58;33.60;;;;;;;2.99;100.00;101286.59;10157094;29;20096;-76
2021/03/09 05:55:12;;;;;;;54.65;35.33;;;;;;;2.97;100.00;101279.66;10160402;29;20055;-75
2021/03/09 06:00:15;;;;;;;56.75;35.88;;;;;;;2.94;100.00;101277.91;10179479;29;20066;-76
2021/03/09 06:05:16;;;;;;;54.35;35.30;;;;;;;2.93;100.00;101273.56;10164236;29;20044;-75
2021/03/09 06:10:21;;;;;;;54.78;37.28;;;;;;;2.89;100.00;101277.06;10163971;29;20055;-74
2021/03/09 06:15:22;;;;;;;;;;;;;;;2.90;100.00;101283.13;10180226;29;20036;-75
2021/03/09 06:20:29;;;;;;;51.83;33.50;;;;;;;2.91;100.00;101279.66;10180187;29;19999;-75
2021/03/09 06:25:37;;;;;;;54.58;34.60;;;;;;;2.93;100.00;101270.13;10180025;29;20048;-74
2021/03/09 06:30:40;;;;;;;55.70;35.38;;;;;;;3.01;100.00;101271.81;10179550;29;20055;-74
2021/03/09 06:35:45;;;;;;;53.58;34.15;;;;;;;2.95;100.00;101250.16;10178106;29;20564;-75
2021/03/09 06:41:06;;;;;;;;;;;;;;;3.04;100.00;101270.94;10164073;29;20111;-75
2021/03/09 06:46:14;;;;;;;58.22;36.15;;;;;;;2.94;100.00;101257.09;10178106;29;19942;-75
2021/03/09 06:51:33;;;;;;;55.80;35.08;;;;;;;2.96;100.00;101278.78;10177895;29;20541;-75
2021/03/09 06:56:39;;;;;;;53.40;34.22;;;;;;;2.88;100.00;101266.66;10163288;29;20044;-75
2021/03/09 07:01:40;;;;;;;52.83;33.13;;;;;;;2.94;100.00;101282.25;10179327;29;20059;-76
2021/03/09 07:06:44;;;;;;;51.97;33.63;;;;;;;3.01;100.00;101294.41;10177751;29;20051;-75
2021/03/09 07:11:48;;;;;;;52.65;33.80;;;;;;;3.01;100.00;101294.41;10177325;29;20063;-74
2021/03/09 07:16:52;;;;;;;52.00;33.45;;;;;;;3.01;100.00;101286.59;10176249;29;20052;-76
2021/03/09 07:21:55;;;;;;;52.35;32.72;;;;;;;3.20;100.00;101303.00;10178076;29;20052;-76
2021/03/09 07:27:04;;;;;;;49.85;33.20;;;;;;;3.12;100.00;101284.81;10177351;29;20103;-74
2021/03/09 07:32:08;;;;;;;52.15;32.90;;;;;;;3.05;100.00;101277.88;10159871;29;20057;-74
2021/03/09 07:37:10;;;;;;;50.22;33.45;;;;;;;3.08;100.00;101277.03;10176150;29;20485;-75
2021/03/09 07:42:11;;;;;;;59.78;37.42;;;;;;;3.10;100.00;101275.28;10176944;29;20048;-73
2021/03/09 07:47:15;;;;;;;55.45;35.75;;;;;;;3.13;100.00;101277.88;10176100;29;20040;-75
2021/03/09 07:52:22;;;;;;;57.70;36.92;;;;;;;3.12;100.00;101274.38;10178070;29;20067;-74
2021/03/09 07:57:23;;;;;;;47.00;32.63;;;;;;;3.20;100.00;101283.03;10176046;29;20032;-74
2021/03/09 08:02:42;;;;;;;55.17;35.58;;;;;;;3.26;100.00;101277.84;10173187;29;20067;-74
2021/03/09 08:07:59;;;;;;;50.47;33.63;;;;;;;3.39;100.00;101284.72;10137268;29;20045;-76
2021/03/09 08:13:06;;;;;;;50.38;34.25;;;;;;;3.44;100.00;101276.88;10137538;29;20108;-75
2021/03/09 08:18:16;;;;;;;55.20;36.53;;;;;;;3.35;100.00;101266.50;10138078;29;20116;-75
2021/03/09 08:28:37;;;;;;;52.88;35.72;;;;;;;3.75;100.00;101277.59;10136431;29;20088;-74
2021/03/09 08:33:38;;;;;;;;;;;;;;;3.47;100.00;101248.22;10153087;29;20351;-75
2021/03/09 08:38:40;;;;;;;51.67;33.53;;;;;;;3.57;100.00;101262.94;10175054;29;19923;-74
2021/03/09 08:43:42;;;;;;;52.47;35.80;;;;;;;3.47;100.00;101243.00;10174513;29;20057;-74
2021/03/09 08:48:49;;;;;;;53.53;35.60;;;;;;;3.41;100.00;101240.44;10147885;29;20068;-73
2021/03/09 08:53:50;;;;;;;54.17;37.42;;;;;;;3.39;100.00;101234.38;10162916;29;20080;-75
2021/03/09 08:58:51;;;;;;;51.42;35.95;;;;;;;3.39;100.00;101235.22;10172975;29;20084;-75
2021/03/09 09:03:52;;;;;;;54.60;36.92;;;;;;;3.31;100.00;101216.19;10143259;29;20116;-75
2021/03/09 09:08:53;;;;;;;50.47;34.40;;;;;;;3.19;100.00;101217.94;10142476;29;20048;-74
2021/03/09 09:13:54;;;;;;;47.60;33.10;;;;;;;3.12;100.00;101203.25;10143445;29;20055;-74
2021/03/09 09:18:56;;;;;;;44.65;30.33;;;;;;;3.07;100.00;101207.63;10138823;29;20060;-73
2021/03/09 09:23:57;;;;;;;45.92;31.35;;;;;;;3.02;100.00;101212.81;10126586;29;20092;-74
2021/03/09 09:29:03;;;;;;;43.53;31.63;;;;;;;3.02;100.00;101220.63;10142925;29;20053;-74
2021/03/09 09:34:05;;;;;;;38.08;27.63;;;;;;;3.02;100.00;101220.63;10143436;29;20060;-75
2021/03/09 09:39:07;;;;;;;40.45;28.65;;;;;;;2.93;100.00;101213.72;10180542;29;20469;-75
2021/03/09 09:44:08;;;;;;;44.60;31.55;;;;;;;3.05;100.00;101231.91;10181062;29;20052;-75
2021/03/09 09:49:11;;;;;;;48.40;32.15;;;;;;;3.08;100.00;101222.34;10180238;29;20048;-74
2021/03/09 09:54:13;;;;;;;49.85;33.78;;;;;;;3.27;100.00;101237.00;10181484;29;20082;-75
2021/03/09 09:59:28;;;;;;;49.65;33.42;;;;;;;3.32;100.00;101235.28;10163165;29;20060;-74
2021/03/09 10:04:33;;;;;;;47.58;35.28;;;;;;;3.55;100.00;101249.03;10160837;29;20112;-75
2021/03/09 10:09:34;;;;;;;48.33;33.15;;;;;;;3.78;100.00;101260.19;10140219;29;20051;-74
2021/03/09 10:14:51;;;;;;;46.30;32.35;;;;;;;3.79;100.00;101245.41;10125162;29;20048;-75
2021/03/09 10:19:52;;;;;;;52.42;35.28;;;;;;;3.94;100.00;101253.13;10140139;29;20053;-73
2021/03/09 10:25:07;;;;;;;49.20;34.15;;;;;;;3.98;100.00;101257.47;10141042;29;20045;-75
2021/03/09 10:30:10;;;;;;;51.72;36.67;;;;;;;3.94;100.00;101240.09;10140310;29;20052;-74
2021/03/09 10:35:11;;;;;;;55.58;36.65;;;;;;;3.90;100.00;101234.94;10140231;29;20045;-74
2021/03/09 10:40:14;;;;;;;52.97;37.80;;;;;;;4.03;100.00;101250.47;10139616;29;20055;-74
2021/03/09 10:45:15;;;;;;;52.42;36.58;;;;;;;4.02;100.00;101253.06;10139335;29;20053;-75
2021/03/09 10:50:18;;;;;;;56.10;37.20;;;;;;;4.19;100.00;101265.13;10139129;29;20083;-74
2021/03/09 10:55:19;;;;;;;55.13;36.95;;;;;;;4.24;100.00;101252.06;10140610;29;20052;-75
2021/03/09 11:00:22;;;;;;;65.75;42.38;;;;;;;4.19;100.00;101246.88;10138758;29;20068;-74
2021/03/09 11:05:23;;;;;;;60.88;39.78;;;;;;;4.49;100.00;101256.19;10166660;29;20051;-74
2021/03/09 11:10:24;;;;;;;65.15;42.30;;;;;;;4.52;100.00;101250.06;10177406;29;20107;-74
2021/03/09 11:15:26;;;;;;;56.08;37.20;;;;;;;4.68;100.00;101266.47;10177694;29;20532;-75
2021/03/09 11:20:27;;;;;;;60.25;40.92;;;;;;;4.91;100.00;101275.78;10200103;29;20456;-75
2021/03/09 11:25:29;;;;;;;63.95;39.03;;;;;;;4.96;100.00;101260.94;10177033;29;20099;-78
2021/03/09 11:30:31;;;;;;;62.28;39.63;;;;;;;5.17;100.00;101269.41;10176497;29;20047;-76
2021/03/09 11:35:33;;;;;;;67.55;44.65;;;;;;;5.24;100.00;101264.09;10147069;29;20044;-76
2021/03/09 11:40:34;;;;;;;61.05;41.20;;;;;;;5.32;100.00;101257.03;10137143;29;20069;-75
2021/03/09 11:45:35;;;;;;;59.78;40.15;;;;;;;5.13;100.00;101242.47;10136915;29;20044;-76
2021/03/09 11:50:37;;;;;;;63.15;41.42;;;;;;;5.19;100.00;101241.53;10137678;29;20072;-75
2021/03/09 11:55:38;;;;;;;61.28;39.15;;;;;;;5.13;100.00;101238.97;10141592;29;20131;-75
2021/03/09 12:00:40;;;;;;;61.53;41.22;;;;;;;5.10;100.00;101237.28;10137172;29;20054;-77
2021/03/09 12:05:41;;;;;;;62.10;40.45;;;;;;;5.20;100.00;101240.63;10159692;29;20083;-77
2021/03/09 12:10:42;;;;;;;71.90;45.10;;;;;;;5.36;100.00;101246.56;10160845;29;20052;-75
2021/03/09 12:15:44;;;;;;;58.38;39.13;;;;;;;5.46;100.00;101237.69;10175827;29;20109;-77
2021/03/09 12:20:45;;;;;;;71.05;43.30;;;;;;;5.59;100.00;101228.81;10175841;29;20490;-77
2021/03/09 12:25:47;;;;;;;62.88;41.85;;;;;;;6.01;100.00;101251.75;10180563;29;20104;-75
2021/03/09 12:30:48;;;;;;;63.90;41.70;;;;;;;6.43;100.00;101236.25;10137321;29;20060;-76
2021/03/09 12:35:49;;;;;;;51.97;35.03;;;;;;;6.69;100.00;101220.97;10173968;29;20529;-76
2021/03/09 12:40:56;;;;;;;52.00;33.83;;;;;;;6.66;100.00;101180.88;10182668;29;20134;-76
2021/03/09 12:45:57;;;;;;;51.45;34.38;;;;;;;6.45;100.00;101146.34;10182163;29;20040;-75
2021/03/09 12:50:59;;;;;;;48.35;33.47;;;;;;;6.48;100.00;101133.19;10181111;29;21856;-75
2021/03/09 12:56:00;;;;;;;44.80;31.70;;;;;;;6.42;100.00;101122.00;10146399;29;20457;-76
2021/03/09 13:01:07;;;;;;;47.60;32.60;;;;;;;6.17;100.00;101089.31;10145404;29;20447;-77
2021/03/09 13:06:08;;;;;;;48.38;32.58;;;;;;;5.99;100.00;101088.78;10143165;29;20054;-76
2021/03/09 13:11:10;;;;;;;57.13;38.35;;;;;;;5.87;100.00;101096.78;10142813;29;20060;-75
2021/03/09 13:16:11;;;;;;;51.67;35.33;;;;;;;5.62;100.00;101079.78;10179658;29;20096;-75
2021/03/09 13:21:14;;;;;;;56.03;36.20;;;;;;;5.48;100.00;101081.75;10135029;29;20049;-76
2021/03/09 13:26:15;;;;;;;53.95;35.38;;;;;;;5.56;100.00;101106.88;10145487;29;20048;-75
2021/03/09 13:31:18;;;;;;;45.42;31.52;;;;;;;5.56;100.00;101101.66;10130932;29;20112;-74
2021/03/09 13:36:19;;;;;;;57.08;34.65;;;;;;;5.52;100.00;101135.72;10175523;29;20055;-76
2021/03/09 13:41:20;;;;;;;58.05;36.40;;;;;;;5.65;100.00;101145.09;10180946;29;20055;-75
2021/03/09 13:46:22;;;;;;;55.00;33.58;;;;;;;5.61;100.00;101146.88;10180662;29;20048;-74
2021/03/09 13:51:23;;;;;;;58.65;37.63;;;;;;;5.84;100.00;101166.59;10180863;29;20375;-75
2021/03/09 13:56:24;;;;;;;54.63;34.42;;;;;;;6.02;100.00;101174.16;10180265;29;20111;-76
2021/03/09 14:01:26;;;;;;;48.42;30.58;;;;;;;6.16;100.00;101172.19;10132203;29;20056;-75
2021/03/09 14:06:28;;;;;;;45.50;31.25;;;;;;;6.13;100.00;101160.88;10140206;29;20507;-74
2021/03/09 14:11:30;;;;;;;43.13;30.10;;;;;;;6.04;100.00;101140.97;10142761;29;20051;-75
2021/03/09 14:16:31;;;;;;;41.88;30.70;;;;;;;5.96;100.00;101140.25;10140918;29;20104;-77
2021/03/09 14:21:34;;;;;;;39.33;25.58;;;;;;;5.89;100.00;101128.16;10124817;29;20440;-76
2021/03/09 14:26:35;;;;;;;34.63;25.42;;;;;;;6.00;100.00;101136.72;10139200;29;20348;-75
2021/03/09 14:31:36;;;;;;;34.92;24.98;;;;;;;5.79;100.00;101110.88;10140853;29;20052;-75
2021/03/09 14:36:38;;;;;;;33.30;23.35;;;;;;;5.75;100.00;101115.31;10160077;29;20542;-75
2021/03/09 14:41:40;;;;;;;34.42;23.83;;;;;;;5.73;100.00;101102.25;10178197;29;20052;-75
2021/03/09 14:46:41;;;;;;;34.10;23.65;;;;;;;5.69;100.00;101108.41;10178230;29;20080;-75
2021/03/09 14:51:46;;;;;;;29.15;22.42;;;;;;;5.80;100.00;101130.91;10178113;29;20052;-75
2021/03/09 14:56:48;;;;;;;28.38;21.63;;;;;;;6.16;100.00;101153.88;10178003;29;20044;-75
2021/03/09 15:01:50;;;;;;;27.17;18.63;;;;;;;6.17;100.00;101134.66;10177427;29;20052;-74
2021/03/09 15:06:52;;;;;;;27.52;20.85;;;;;;;6.24;100.00;101132.78;10122960;29;20049;-75
2021/03/09 15:11:54;;;;;;;27.80;20.48;;;;;;;6.23;100.00;101115.38;10140028;29;20053;-75
2021/03/09 15:16:55;;;;;;;28.27;20.17;;;;;;;6.22;100.00;101104.03;10137070;29;20048;-75
2021/03/09 15:21:57;;;;;;;27.10;18.33;;;;;;;6.09;100.00;101087.72;10138237;29;20052;-74
2021/03/09 15:26:58;;;;;;;28.42;19.20;;;;;;;6.11;100.00;101079.81;10136828;29;20053;-73
2021/03/09 15:32:00;;;;;;;28.60;19.85;;;;;;;6.20;100.00;101090.13;10138684;29;20363;-73
2021/03/09 15:37:01;;;;;;;28.10;19.77;;;;;;;6.35;100.00;101095.09;10139763;29;20041;-74
2021/03/09 15:42:03;;;;;;;31.58;22.05;;;;;;;6.51;100.00;101113.09;10138192;29;20091;-76
2021/03/09 15:47:05;;;;;;;31.27;19.75;;;;;;;6.41;100.00;101089.72;10440356;23;20139;-68
2021/03/09 15:52:16;;;;;;;25.20;16.15;;;;;;;6.37;100.00;101082.81;10177644;29;20040;-69
2021/03/09 15:57:17;;;;;;;20.80;14.02;;;;;;;6.26;100.00;101069.09;10177519;29;20051;-68
2021/03/09 16:02:18;;;;;;;16.38;12.63;;;;;;;6.14;100.00;101057.97;10185221;29;20056;-68
2021/03/09 16:07:21;;;;;;;15.13;9.85;;;;;;;6.08;100.00;101044.16;10185289;29;20099;-66
2021/03/09 16:12:22;;;;;;;12.20;8.27;;;;;;;5.98;100.00;101039.09;10185088;29;20056;-69
2021/03/09 16:17:24;;;;;;;12.27;7.60;;;;;;;5.94;100.00;101034.84;10183765;29;20457;-69
2021/03/09 16:22:25;;;;;;;11.35;6.35;;;;;;;5.82;100.00;101033.25;10183941;29;20052;-68
2021/03/09 16:27:26;;;;;;;8.57;5.30;;;;;;;5.79;100.00;101032.44;10150308;29;20045;-68
2021/03/09 16:32:27;;;;;;;9.55;5.00;;;;;;;5.66;100.00;101031.81;10145969;29;20040;-68
2021/03/09 16:37:29;;;;;;;12.00;10.82;;;;;;;5.65;100.00;101028.34;10179774;29;20107;-68
2021/03/09 16:42:33;;;;;;;9.00;5.80;;;;;;;5.62;100.00;101035.34;10184355;29;20048;-69
2021/03/09 16:47:35;;;;;;;7.57;6.70;;;;;;;5.65;100.00;101049.25;10183340;29;20087;-68
2021/03/09 16:52:38;;;;;;;7.88;5.65;;;;;;;5.67;100.00;101055.31;10183565;29;20048;-68
2021/03/09 16:57:40;;;;;;;7.35;5.55;;;;;;;5.61;100.00;101055.38;10183108;29;20059;-67
2021/03/09 17:02:42;;;;;;;6.95;5.93;;;;;;;5.54;100.00;101051.16;10183303;29;20048;-70
2021/03/09 17:07:44;;;;;;;8.95;7.82;;;;;;;5.57;100.00;101065.94;10181901;29;20127;-69
2021/03/09 17:12:45;;;;;;;11.48;9.23;;;;;;;5.54;100.00;101065.97;10168427;29;20427;-69
2021/03/09 17:17:46;;;;;;;9.65;8.50;;;;;;;5.40;100.00;101045.31;10160057;29;20398;-69
2021/03/09 17:22:48;;;;;;;41.15;29.60;;;;;;;5.25;100.00;101041.19;10182947;29;20048;-69
2021/03/09 17:27:49;;;;;;;31.45;25.27;;;;;;;5.19;100.00;101048.25;10182375;29;20099;-67
2021/03/09 17:32:51;;;;;;;10.60;9.55;;;;;;;5.23;100.00;101066.47;10182528;29;20047;-66
2021/03/09 17:37:52;;;;;;;6.40;5.70;;;;;;;5.29;100.00;101075.94;10182321;29;20044;-68
2021/03/09 17:42:54;;;;;;;12.95;11.73;;;;;;;5.22;100.00;101064.72;10181484;29;20055;-67
2021/03/09 17:47:57;;;;;;;9.68;7.13;;;;;;;5.26;100.00;101076.88;10144482;29;20063;-65
2021/03/09 17:53:11;;;;;;;7.88;5.38;;;;;;;5.30;100.00;101081.16;10142401;29;20053;-66
2021/03/09 17:58:12;;;;;;;7.32;5.78;;;;;;;5.39;100.00;101093.22;10178668;29;20411;-67
2021/03/09 18:03:14;;;;;;;7.40;5.43;;;;;;;5.30;100.00;101075.06;10179352;29;20048;-68
2021/03/09 18:08:15;;;;;;;9.35;8.45;;;;;;;5.19;100.00;101063.94;10179686;29;20390;-68
2021/03/09 18:13:16;;;;;;;7.05;5.75;;;;;;;5.23;100.00;101084.75;10180443;29;20044;-66
2021/03/09 18:18:18;;;;;;;11.45;8.27;;;;;;;5.16;100.00;101085.72;10180275;29;20055;-69
2021/03/09 18:23:19;;;;;;;9.88;7.80;;;;;;;5.01;100.00;101096.41;10179438;29;20048;-66
2021/03/09 18:28:21;;;;;;;9.45;6.63;;;;;;;5.06;100.00;101109.38;10179158;29;20044;-68
2021/03/09 18:33:27;;;;;;;9.00;7.28;;;;;;;5.06;100.00;101114.59;10176529;29;20079;-68
2021/03/09 18:38:28;;;;;;;8.93;7.88;;;;;;;5.09;100.00;101127.63;10150918;29;20048;-68
2021/03/09 18:43:29;;;;;;;9.57;7.43;;;;;;;5.07;100.00;101132.00;10166733;29;20040;-67
2021/03/09 18:48:31;;;;;;;8.10;6.47;;;;;;;5.14;100.00;101137.13;10169649;29;20040;-68
2021/03/09 18:53:32;;;;;;;9.05;6.65;;;;;;;5.19;100.00;101150.13;10143685;29;20041;-69
2021/03/09 18:58:33;;;;;;;9.75;6.80;;;;;;;5.21;100.00;101143.13;10178856;29;20450;-67
2021/03/09 19:03:47;;;;;;;11.18;8.45;;;;;;;5.24;100.00;101143.09;10178835;29;20126;-68
2021/03/09 19:08:48;;;;;;;8.27;7.05;;;;;;;5.26;100.00;101139.56;10175065;29;20048;-68
2021/03/09 19:13:49;;;;;;;8.88;7.03;;;;;;;5.19;100.00;101124.84;10172578;29;20044;-68
2021/03/09 19:18:51;;;;;;;8.02;5.90;;;;;;;5.08;100.00;101112.84;10153956;29;20058;-67
2021/03/09 19:23:52;;;;;;;7.93;5.80;;;;;;;5.03;100.00;101112.03;10178021;29;20107;-66
2021/03/09 19:28:54;;;;;;;8.27;6.43;;;;;;;5.00;100.00;101122.53;10177714;29;20044;-69
2021/03/09 19:34:08;;;;;;;8.23;6.88;;;;;;;5.02;100.00;101128.59;10176837;29;20392;-68
2021/03/09 19:39:10;;;;;;;10.32;6.55;;;;;;;4.96;100.00;101135.59;10177090;29;20052;-68
2021/03/09 19:44:11;;;;;;;9.23;6.25;;;;;;;4.99;100.00;101142.53;10177173;29;20052;-67
2021/03/09 19:49:12;;;;;;;7.75;5.75;;;;;;;4.89;100.00;101139.19;10178191;29;20055;-69
2021/03/09 19:54:13;;;;;;;8.02;6.50;;;;;;;4.93;100.00;101153.06;10168467;29;20056;-68
2021/03/09 19:59:15;;;;;;;7.55;6.53;;;;;;;4.88;100.00;101144.41;10136965;29;20153;-68
2021/03/09 20:04:32;;;;;;;8.88;6.13;;;;;;;4.89;100.00;101154.84;10137499;29;20052;-69
2021/03/09 20:09:34;;;;;;;9.07;6.53;;;;;;;4.83;100.00;101157.53;10149478;29;20036;-68
2021/03/09 20:14:35;;;;;;;7.13;5.85;;;;;;;4.81;100.00;101168.88;10177176;29;20056;-69
2021/03/09 20:19:36;;;;;;;10.02;6.80;;;;;;;4.79;100.00;101181.06;10158865;29;20052;-68
2021/03/09 20:24:38;;;;;;;8.13;7.25;;;;;;;4.87;100.00;101200.13;10150226;29;20441;-69
2021/03/09 20:29:40;;;;;;;8.70;6.40;;;;;;;4.84;100.00;101201.03;10175972;29;20044;-68
2021/03/09 20:34:55;;;;;;;8.90;6.93;;;;;;;4.78;100.00;101210.66;10176880;29;20147;-68
2021/03/09 20:39:56;;;;;;;9.63;7.18;;;;;;;4.87;100.00;101223.59;10161468;29;20179;-68
2021/03/09 20:44:58;;;;;;;8.88;7.53;;;;;;;4.80;100.00;101208.91;10139813;29;20426;-69
2021/03/09 20:50:05;;;;;;;9.93;7.73;;;;;;;4.77;100.00;101216.78;10144654;29;20048;-68
2021/03/09 20:55:07;;;;;;;10.00;7.95;;;;;;;4.74;100.00;101196.78;10160087;29;20429;-68
2021/03/09 21:00:29;;;;;;;8.75;6.93;;;;;;;4.78;100.00;101202.81;10183668;29;20052;-68
2021/03/09 21:05:30;;;;;;;11.05;7.95;;;;;;;4.83;100.00;101206.28;10182924;29;20080;-68
2021/03/09 21:10:32;;;;;;;9.98;7.28;;;;;;;4.82;100.00;101194.97;10149462;29;20053;-68
2021/03/09 21:15:34;;;;;;;10.05;7.57;;;;;;;4.73;100.00;101182.00;10143388;29;20119;-69
2021/03/09 21:20:36;;;;;;;10.00;7.20;;;;;;;4.71;100.00;101194.19;10180015;29;20051;-68
2021/03/09 21:25:38;;;;;;;9.68;7.50;;;;;;;4.62;100.00;101189.09;10146175;29;20155;-68
2021/03/09 21:30:40;;;;;;;10.02;8.20;;;;;;;4.56;100.00;101184.81;10142519;29;20072;-68
2021/03/09 21:35:42;;;;;;;10.15;6.93;;;;;;;4.53;100.00;101186.56;10176843;29;20040;-68
2021/03/09 21:40:45;;;;;;;11.85;9.13;;;;;;;4.52;100.00;101195.28;10161687;29;20056;-69
2021/03/09 21:45:47;;;;;;;11.88;8.38;;;;;;;4.50;100.00;101186.63;10163384;29;20040;-69
2021/03/09 21:50:50;;;;;;;12.32;8.48;;;;;;;4.54;100.00;101198.72;10157610;29;20067;-67
2021/03/09 21:55:53;;;;;;;11.68;7.35;;;;;;;4.53;100.00;101187.44;10141433;29;20406;-67
2021/03/09 22:00:54;;;;;;;13.75;8.75;;;;;;;4.52;100.00;101201.34;10141525;29;20056;-69
2021/03/09 22:06:01;;;;;;;11.07;7.22;;;;;;;4.50;100.00;101189.22;10180282;29;20430;-69
2021/03/09 22:11:02;;;;;;;10.75;6.85;;;;;;;4.47;100.00;101187.50;10181370;29;20442;-68
2021/03/09 22:16:03;;;;;;;9.50;6.70;;;;;;;4.44;100.00;101181.44;10157272;29;20470;-68
2021/03/09 22:21:05;;;;;;;9.23;6.70;;;;;;;4.48;100.00;101191.84;10140977;29;20498;-68
2021/03/09 22:26:09;;;;;;;9.23;6.40;;;;;;;4.34;100.00;101166.78;10164249;29;20048;-69
2021/03/09 22:31:10;;;;;;;8.02;6.15;;;;;;;4.37;100.00;101169.34;10180944;29;20106;-68
2021/03/09 22:36:29;;;;;;;7.55;6.28;;;;;;;4.37;100.00;101171.94;10179564;29;20055;-69
2021/03/09 22:41:30;;;;;;;9.73;7.15;;;;;;;4.42;100.00;101172.78;10151954;29;20111;-67
2021/03/09 22:46:31;;;;;;;8.82;6.05;;;;;;;4.41;100.00;101168.44;10140377;29;20055;-66
2021/03/09 22:51:34;;;;;;;8.52;6.50;;;;;;;4.47;100.00;101176.19;10140519;29;20048;-68
2021/03/09 22:56:36;;;;;;;8.30;6.53;;;;;;;4.46;100.00;101171.84;10166131;29;20052;-68
2021/03/09 23:01:47;;;;;;;8.07;6.10;;;;;;;4.48;100.00;101167.50;10178952;29;20120;-68